sensor_id;sensor_type;location;lat;lon;timestamp;temperature;humidity
45008;DHT22;30743;52.008;5.644;2023-05-27T00:00:52;13.40;99.90
45008;DHT22;30743;52.008;5.644;2023-05-27T00:03:18;13.50;99.90
45008;DHT22;30743;52.008;5.644;2023-05-27T00:05:43;13.60;99.90
45008;DHT22;30743;52.008;5.644;2023-05-27T00:08:09;13.50;99.90
45008;DHT22;30743;52.008;5.644;2023-05-27T00:10:35;13.50;99.90
45008;DHT22;30743;52.008;5.644;2023-05-27T00:13:00;13.40;99.90
45008;DHT22;30743;52.008;5.644;2023-05-27T00:15:26;13.40;99.90
45008;DHT22;30743;52.008;5.644;2023-05-27T00:17:52;13.40;99.90
45008;DHT22;30743;52.008;5.644;2023-05-27T00:20:18;13.40;99.90
45008;DHT22;30743;52.008;5.644;2023-05-27T00:22:44;13.70;99.90
45008;DHT22;30743;52.008;5.644;2023-05-27T00:25:10;13.60;99.90
45008;DHT22;30743;52.008;5.644;2023-05-27T00:27:36;13.60;99.90
45008;DHT22;30743;52.008;5.644;2023-05-27T00:30:02;13.60;99.90
45008;DHT22;30743;52.008;5.644;2023-05-27T00:32:28;13.50;99.90
45008;DHT22;30743;52.008;5.644;2023-05-27T00:34:53;13.40;99.90
45008;DHT22;30743;52.008;5.644;2023-05-27T00:37:19;13.30;99.90
45008;DHT22;30743;52.008;5.644;2023-05-27T00:39:44;13.30;99.90
45008;DHT22;30743;52.008;5.644;2023-05-27T00:42:10;13.20;99.90
45008;DHT22;30743;52.008;5.644;2023-05-27T00:44:36;13.20;99.90
45008;DHT22;30743;52.008;5.644;2023-05-27T00:47:02;13.20;99.90
45008;DHT22;30743;52.008;5.644;2023-05-27T00:49:27;13.40;99.90
45008;DHT22;30743;52.008;5.644;2023-05-27T00:51:53;13.30;99.90
45008;DHT22;30743;52.008;5.644;2023-05-27T00:54:19;13.30;99.90
45008;DHT22;30743;52.008;5.644;2023-05-27T00:56:44;13.20;99.90
45008;DHT22;30743;52.008;5.644;2023-05-27T00:59:11;13.20;99.90
45008;DHT22;30743;52.008;5.644;2023-05-27T01:01:36;13.20;99.90
45008;DHT22;30743;52.008;5.644;2023-05-27T01:04:04;13.30;99.90
45008;DHT22;30743;52.008;5.644;2023-05-27T01:06:53;13.10;99.90
45008;DHT22;30743;52.008;5.644;2023-05-27T01:14:29;12.90;99.90
45008;DHT22;30743;52.008;5.644;2023-05-27T01:16:57;12.70;99.90
45008;DHT22;30743;52.008;5.644;2023-05-27T01:19:45;12.80;99.90
45008;DHT22;30743;52.008;5.644;2023-05-27T01:22:15;12.90;99.90
45008;DHT22;30743;52.008;5.644;2023-05-27T01:24:41;12.90;99.90
45008;DHT22;30743;52.008;5.644;2023-05-27T01:27:07;13.00;99.90
45008;DHT22;30743;52.008;5.644;2023-05-27T01:29:34;13.10;99.90
45008;DHT22;30743;52.008;5.644;2023-05-27T01:32:40;13.00;99.90
45008;DHT22;30743;52.008;5.644;2023-05-27T01:37:48;12.90;99.90
45008;DHT22;30743;52.008;5.644;2023-05-27T01:40:16;12.80;99.90
45008;DHT22;30743;52.008;5.644;2023-05-27T01:42:43;12.80;99.90
45008;DHT22;30743;52.008;5.644;2023-05-27T01:45:10;12.70;99.90
45008;DHT22;30743;52.008;5.644;2023-05-27T01:47:36;12.80;99.90
45008;DHT22;30743;52.008;5.644;2023-05-27T01:50:02;12.70;99.90
45008;DHT22;30743;52.008;5.644;2023-05-27T01:52:27;12.60;99.90
45008;DHT22;30743;52.008;5.644;2023-05-27T01:54:53;12.50;99.90
45008;DHT22;30743;52.008;5.644;2023-05-27T01:57:19;12.50;99.90
45008;DHT22;30743;52.008;5.644;2023-05-27T01:59:45;12.50;99.90
45008;DHT22;30743;52.008;5.644;2023-05-27T02:02:11;12.40;99.90
45008;DHT22;30743;52.008;5.644;2023-05-27T02:04:36;12.30;99.90
45008;DHT22;30743;52.008;5.644;2023-05-27T02:07:02;12.20;99.90
45008;DHT22;30743;52.008;5.644;2023-05-27T02:09:28;12.30;99.90
45008;DHT22;30743;52.008;5.644;2023-05-27T02:11:54;12.40;99.90
45008;DHT22;30743;52.008;5.644;2023-05-27T02:14:19;12.50;99.90
45008;DHT22;30743;52.008;5.644;2023-05-27T02:16:45;12.60;99.90
45008;DHT22;30743;52.008;5.644;2023-05-27T02:19:11;12.80;99.90
45008;DHT22;30743;52.008;5.644;2023-05-27T02:21:36;12.70;99.90
45008;DHT22;30743;52.008;5.644;2023-05-27T02:24:02;12.70;99.90
45008;DHT22;30743;52.008;5.644;2023-05-27T02:26:28;12.50;99.90
45008;DHT22;30743;52.008;5.644;2023-05-27T02:28:54;12.50;99.90
45008;DHT22;30743;52.008;5.644;2023-05-27T02:31:19;12.40;99.90
45008;DHT22;30743;52.008;5.644;2023-05-27T02:33:45;12.40;99.90
45008;DHT22;30743;52.008;5.644;2023-05-27T02:36:11;12.40;99.90
45008;DHT22;30743;52.008;5.644;2023-05-27T02:38:37;12.30;99.90
45008;DHT22;30743;52.008;5.644;2023-05-27T02:41:03;12.50;99.90
45008;DHT22;30743;52.008;5.644;2023-05-27T02:43:29;13.50;99.90
45008;DHT22;30743;52.008;5.644;2023-05-27T02:45:54;12.30;99.90
45008;DHT22;30743;52.008;5.644;2023-05-27T02:48:20;12.30;99.90
45008;DHT22;30743;52.008;5.644;2023-05-27T02:50:46;12.40;99.90
45008;DHT22;30743;52.008;5.644;2023-05-27T02:53:11;12.30;99.90
45008;DHT22;30743;52.008;5.644;2023-05-27T02:55:37;12.30;99.90
45008;DHT22;30743;52.008;5.644;2023-05-27T02:58:02;12.40;99.90
45008;DHT22;30743;52.008;5.644;2023-05-27T03:00:32;12.50;99.90
45008;DHT22;30743;52.008;5.644;2023-05-27T03:02:57;12.50;99.90
45008;DHT22;30743;52.008;5.644;2023-05-27T03:05:23;12.60;99.90
45008;DHT22;30743;52.008;5.644;2023-05-27T03:07:49;12.80;99.90
45008;DHT22;30743;52.008;5.644;2023-05-27T03:10:14;12.80;99.90
45008;DHT22;30743;52.008;5.644;2023-05-27T03:12:40;12.70;99.90
45008;DHT22;30743;52.008;5.644;2023-05-27T03:15:06;12.80;99.90
45008;DHT22;30743;52.008;5.644;2023-05-27T03:17:32;12.80;99.90
45008;DHT22;30743;52.008;5.644;2023-05-27T03:19:58;12.90;99.90
45008;DHT22;30743;52.008;5.644;2023-05-27T03:22:23;12.90;99.90
45008;DHT22;30743;52.008;5.644;2023-05-27T03:24:49;13.00;99.90
45008;DHT22;30743;52.008;5.644;2023-05-27T03:27:15;13.00;99.90
45008;DHT22;30743;52.008;5.644;2023-05-27T03:29:40;12.90;99.90
45008;DHT22;30743;52.008;5.644;2023-05-27T03:32:07;12.90;99.90
45008;DHT22;30743;52.008;5.644;2023-05-27T03:34:32;12.80;99.90
45008;DHT22;30743;52.008;5.644;2023-05-27T03:36:58;12.90;99.90
45008;DHT22;30743;52.008;5.644;2023-05-27T03:39:24;13.00;99.90
45008;DHT22;30743;52.008;5.644;2023-05-27T03:41:49;13.00;99.90
45008;DHT22;30743;52.008;5.644;2023-05-27T03:44:15;12.90;99.90
45008;DHT22;30743;52.008;5.644;2023-05-27T03:46:41;13.10;99.90
45008;DHT22;30743;52.008;5.644;2023-05-27T03:49:06;13.00;99.90
45008;DHT22;30743;52.008;5.644;2023-05-27T03:51:32;13.10;99.90
45008;DHT22;30743;52.008;5.644;2023-05-27T03:53:57;12.90;99.90
45008;DHT22;30743;52.008;5.644;2023-05-27T03:56:23;13.20;99.90
45008;DHT22;30743;52.008;5.644;2023-05-27T03:58:49;13.20;99.90
45008;DHT22;30743;52.008;5.644;2023-05-27T04:01:15;13.20;99.90
45008;DHT22;30743;52.008;5.644;2023-05-27T04:03:42;13.10;99.90
45008;DHT22;30743;52.008;5.644;2023-05-27T04:06:09;13.20;99.90
45008;DHT22;30743;52.008;5.644;2023-05-27T04:08:35;13.10;99.90
45008;DHT22;30743;52.008;5.644;2023-05-27T04:11:01;12.90;99.90
45008;DHT22;30743;52.008;5.644;2023-05-27T04:13:26;12.80;99.90
45008;DHT22;30743;52.008;5.644;2023-05-27T04:15:52;12.70;99.90
45008;DHT22;30743;52.008;5.644;2023-05-27T04:18:19;12.60;99.90
45008;DHT22;30743;52.008;5.644;2023-05-27T04:20:44;12.50;99.90
45008;DHT22;30743;52.008;5.644;2023-05-27T04:23:12;12.50;99.90
45008;DHT22;30743;52.008;5.644;2023-05-27T04:25:38;12.40;99.90
45008;DHT22;30743;52.008;5.644;2023-05-27T04:28:04;12.40;99.90
45008;DHT22;30743;52.008;5.644;2023-05-27T04:30:33;12.20;99.90
45008;DHT22;30743;52.008;5.644;2023-05-27T04:33:00;12.20;99.90
45008;DHT22;30743;52.008;5.644;2023-05-27T04:35:26;12.10;99.90
45008;DHT22;30743;52.008;5.644;2023-05-27T04:37:51;12.20;99.90
45008;DHT22;30743;52.008;5.644;2023-05-27T04:40:17;12.30;99.90
45008;DHT22;30743;52.008;5.644;2023-05-27T04:42:43;12.10;99.90
45008;DHT22;30743;52.008;5.644;2023-05-27T04:45:10;12.20;99.90
45008;DHT22;30743;52.008;5.644;2023-05-27T04:47:38;12.10;99.90
45008;DHT22;30743;52.008;5.644;2023-05-27T04:50:07;12.10;99.90
45008;DHT22;30743;52.008;5.644;2023-05-27T04:52:33;12.20;99.90
45008;DHT22;30743;52.008;5.644;2023-05-27T04:55:05;12.30;99.90
45008;DHT22;30743;52.008;5.644;2023-05-27T04:57:31;12.30;99.90
45008;DHT22;30743;52.008;5.644;2023-05-27T04:59:57;12.30;99.90
45008;DHT22;30743;52.008;5.644;2023-05-27T05:02:38;12.20;99.90
45008;DHT22;30743;52.008;5.644;2023-05-27T05:05:06;12.30;99.90
45008;DHT22;30743;52.008;5.644;2023-05-27T05:07:34;12.30;99.90
45008;DHT22;30743;52.008;5.644;2023-05-27T05:10:06;12.20;99.90
45008;DHT22;30743;52.008;5.644;2023-05-27T05:12:32;12.30;99.90
45008;DHT22;30743;52.008;5.644;2023-05-27T05:14:58;12.30;99.90
45008;DHT22;30743;52.008;5.644;2023-05-27T05:17:24;10.90;99.90
45008;DHT22;30743;52.008;5.644;2023-05-27T05:19:51;12.20;99.90
45008;DHT22;30743;52.008;5.644;2023-05-27T05:22:18;12.30;99.90
45008;DHT22;30743;52.008;5.644;2023-05-27T05:24:45;12.40;99.90
45008;DHT22;30743;52.008;5.644;2023-05-27T05:27:11;12.50;99.90
45008;DHT22;30743;52.008;5.644;2023-05-27T05:29:36;12.60;99.90
45008;DHT22;30743;52.008;5.644;2023-05-27T05:32:03;12.80;99.90
45008;DHT22;30743;52.008;5.644;2023-05-27T05:34:28;13.20;99.90
45008;DHT22;30743;52.008;5.644;2023-05-27T05:36:54;13.30;99.90
45008;DHT22;30743;52.008;5.644;2023-05-27T05:39:20;13.40;99.90
45008;DHT22;30743;52.008;5.644;2023-05-27T05:41:45;13.30;99.90
45008;DHT22;30743;52.008;5.644;2023-05-27T05:44:11;13.30;99.90
45008;DHT22;30743;52.008;5.644;2023-05-27T05:46:37;13.40;99.90
45008;DHT22;30743;52.008;5.644;2023-05-27T05:49:04;13.50;99.90
45008;DHT22;30743;52.008;5.644;2023-05-27T05:51:30;13.60;99.90
45008;DHT22;30743;52.008;5.644;2023-05-27T05:53:56;13.80;99.90
45008;DHT22;30743;52.008;5.644;2023-05-27T05:56:22;13.90;99.90
45008;DHT22;30743;52.008;5.644;2023-05-27T05:58:48;13.90;99.90
45008;DHT22;30743;52.008;5.644;2023-05-27T06:01:15;14.00;99.90
45008;DHT22;30743;52.008;5.644;2023-05-27T06:03:40;14.20;99.90
45008;DHT22;30743;52.008;5.644;2023-05-27T06:06:06;14.20;99.90
45008;DHT22;30743;52.008;5.644;2023-05-27T06:08:32;14.50;99.90
45008;DHT22;30743;52.008;5.644;2023-05-27T06:10:58;14.40;99.90
45008;DHT22;30743;52.008;5.644;2023-05-27T06:13:23;14.40;99.90
45008;DHT22;30743;52.008;5.644;2023-05-27T06:15:49;14.80;99.90
45008;DHT22;30743;52.008;5.644;2023-05-27T06:18:14;15.00;99.90
45008;DHT22;30743;52.008;5.644;2023-05-27T06:20:40;15.00;99.90
45008;DHT22;30743;52.008;5.644;2023-05-27T06:23:05;14.90;99.90
45008;DHT22;30743;52.008;5.644;2023-05-27T06:25:32;14.80;99.90
45008;DHT22;30743;52.008;5.644;2023-05-27T06:27:58;14.80;99.90
45008;DHT22;30743;52.008;5.644;2023-05-27T06:30:23;15.10;99.90
45008;DHT22;30743;52.008;5.644;2023-05-27T06:32:49;15.30;99.90
45008;DHT22;30743;52.008;5.644;2023-05-27T06:35:14;15.70;99.90
45008;DHT22;30743;52.008;5.644;2023-05-27T06:37:40;16.60;99.90
45008;DHT22;30743;52.008;5.644;2023-05-27T06:40:06;16.20;99.90
45008;DHT22;30743;52.008;5.644;2023-05-27T06:42:32;16.30;99.90
45008;DHT22;30743;52.008;5.644;2023-05-27T06:44:57;16.80;99.90
45008;DHT22;30743;52.008;5.644;2023-05-27T06:47:23;16.80;99.90
45008;DHT22;30743;52.008;5.644;2023-05-27T06:49:48;17.20;99.90
45008;DHT22;30743;52.008;5.644;2023-05-27T06:52:14;17.40;99.90
45008;DHT22;30743;52.008;5.644;2023-05-27T06:54:39;17.30;99.90
45008;DHT22;30743;52.008;5.644;2023-05-27T06:57:05;17.70;99.90
45008;DHT22;30743;52.008;5.644;2023-05-27T06:59:30;17.90;99.90
45008;DHT22;30743;52.008;5.644;2023-05-27T07:01:56;17.90;99.90
45008;DHT22;30743;52.008;5.644;2023-05-27T07:04:22;17.90;99.90
45008;DHT22;30743;52.008;5.644;2023-05-27T07:06:47;18.10;99.90
45008;DHT22;30743;52.008;5.644;2023-05-27T07:09:13;18.40;99.90
45008;DHT22;30743;52.008;5.644;2023-05-27T07:11:39;18.60;99.90
45008;DHT22;30743;52.008;5.644;2023-05-27T07:14:05;18.90;99.90
45008;DHT22;30743;52.008;5.644;2023-05-27T07:16:31;19.00;99.90
45008;DHT22;30743;52.008;5.644;2023-05-27T07:18:56;19.10;99.90
45008;DHT22;30743;52.008;5.644;2023-05-27T07:21:22;19.20;99.90
45008;DHT22;30743;52.008;5.644;2023-05-27T07:23:47;19.50;99.90
45008;DHT22;30743;52.008;5.644;2023-05-27T07:26:13;19.60;99.90
45008;DHT22;30743;52.008;5.644;2023-05-27T07:28:38;19.50;99.90
45008;DHT22;30743;52.008;5.644;2023-05-27T07:31:04;19.40;99.90
45008;DHT22;30743;52.008;5.644;2023-05-27T07:33:30;19.40;99.90
45008;DHT22;30743;52.008;5.644;2023-05-27T07:35:56;19.50;99.90
45008;DHT22;30743;52.008;5.644;2023-05-27T07:38:21;19.90;99.90
45008;DHT22;30743;52.008;5.644;2023-05-27T07:40:47;19.90;99.90
45008;DHT22;30743;52.008;5.644;2023-05-27T07:43:12;20.20;99.90
45008;DHT22;30743;52.008;5.644;2023-05-27T07:45:38;20.10;99.90
45008;DHT22;30743;52.008;5.644;2023-05-27T07:48:03;19.80;99.90
45008;DHT22;30743;52.008;5.644;2023-05-27T07:50:29;20.00;99.90
45008;DHT22;30743;52.008;5.644;2023-05-27T07:52:55;20.50;99.90
45008;DHT22;30743;52.008;5.644;2023-05-27T07:55:20;20.90;99.90
45008;DHT22;30743;52.008;5.644;2023-05-27T07:57:46;21.10;99.90
45008;DHT22;30743;52.008;5.644;2023-05-27T08:00:12;21.30;99.50
45008;DHT22;30743;52.008;5.644;2023-05-27T08:02:38;21.00;99.00
45008;DHT22;30743;52.008;5.644;2023-05-27T08:05:03;21.00;98.70
45008;DHT22;30743;52.008;5.644;2023-05-27T08:07:30;21.20;99.30
45008;DHT22;30743;52.008;5.644;2023-05-27T08:09:55;21.40;98.60
45008;DHT22;30743;52.008;5.644;2023-05-27T08:12:21;21.80;99.10
45008;DHT22;30743;52.008;5.644;2023-05-27T08:14:47;21.80;98.30
45008;DHT22;30743;52.008;5.644;2023-05-27T08:17:13;22.70;98.70
45008;DHT22;30743;52.008;5.644;2023-05-27T08:19:39;22.20;98.00
45008;DHT22;30743;52.008;5.644;2023-05-27T08:22:05;22.30;97.50
45008;DHT22;30743;52.008;5.644;2023-05-27T08:24:34;22.30;96.60
45008;DHT22;30743;52.008;5.644;2023-05-27T08:27:00;22.50;97.10
45008;DHT22;30743;52.008;5.644;2023-05-27T08:29:26;22.70;97.00
45008;DHT22;30743;52.008;5.644;2023-05-27T08:31:53;22.90;97.20
45008;DHT22;30743;52.008;5.644;2023-05-27T08:34:19;22.90;97.10
45008;DHT22;30743;52.008;5.644;2023-05-27T08:36:44;23.10;96.60
45008;DHT22;30743;52.008;5.644;2023-05-27T08:39:10;23.40;96.40
45008;DHT22;30743;52.008;5.644;2023-05-27T08:41:36;23.60;96.20
45008;DHT22;30743;52.008;5.644;2023-05-27T08:44:02;23.30;96.40
45008;DHT22;30743;52.008;5.644;2023-05-27T08:46:28;22.90;97.00
45008;DHT22;30743;52.008;5.644;2023-05-27T08:48:54;23.00;97.20
45008;DHT22;30743;52.008;5.644;2023-05-27T08:51:21;23.30;95.50
45008;DHT22;30743;52.008;5.644;2023-05-27T08:53:47;23.60;95.10
45008;DHT22;30743;52.008;5.644;2023-05-27T08:56:15;23.70;95.70
45008;DHT22;30743;52.008;5.644;2023-05-27T08:58:44;23.50;95.60
45008;DHT22;30743;52.008;5.644;2023-05-27T09:01:09;23.60;95.60
45008;DHT22;30743;52.008;5.644;2023-05-27T09:03:35;23.90;96.20
45008;DHT22;30743;52.008;5.644;2023-05-27T09:06:02;24.20;95.10
45008;DHT22;30743;52.008;5.644;2023-05-27T09:08:30;24.40;94.90
45008;DHT22;30743;52.008;5.644;2023-05-27T09:10:55;24.50;96.20
45008;DHT22;30743;52.008;5.644;2023-05-27T09:13:31;24.80;95.10
45008;DHT22;30743;52.008;5.644;2023-05-27T09:16:03;25.60;95.80
45008;DHT22;30743;52.008;5.644;2023-05-27T09:18:31;25.20;94.20
45008;DHT22;30743;52.008;5.644;2023-05-27T09:20:58;25.30;92.70
45008;DHT22;30743;52.008;5.644;2023-05-27T09:23:24;25.60;94.60
45008;DHT22;30743;52.008;5.644;2023-05-27T09:25:49;25.80;93.00
45008;DHT22;30743;52.008;5.644;2023-05-27T09:28:25;25.80;92.60
45008;DHT22;30743;52.008;5.644;2023-05-27T09:31:01;25.80;92.20
45008;DHT22;30743;52.008;5.644;2023-05-27T09:33:34;26.00;93.50
45008;DHT22;30743;52.008;5.644;2023-05-27T09:36:01;26.10;92.70
45008;DHT22;30743;52.008;5.644;2023-05-27T09:38:35;26.20;91.80
45008;DHT22;30743;52.008;5.644;2023-05-27T09:41:01;26.20;91.70
45008;DHT22;30743;52.008;5.644;2023-05-27T09:43:28;26.30;92.60
45008;DHT22;30743;52.008;5.644;2023-05-27T09:46:01;26.20;91.40
45008;DHT22;30743;52.008;5.644;2023-05-27T09:48:31;26.30;91.90
45008;DHT22;30743;52.008;5.644;2023-05-27T09:50:58;26.40;90.60
45008;DHT22;30743;52.008;5.644;2023-05-27T09:53:26;26.20;89.50
45008;DHT22;30743;52.008;5.644;2023-05-27T09:55:56;26.00;90.40
45008;DHT22;30743;52.008;5.644;2023-05-27T09:58:23;26.20;91.20
45008;DHT22;30743;52.008;5.644;2023-05-27T10:00:49;25.70;92.50
45008;DHT22;30743;52.008;5.644;2023-05-27T10:03:16;25.90;90.80
45008;DHT22;30743;52.008;5.644;2023-05-27T10:05:43;25.60;93.00
45008;DHT22;30743;52.008;5.644;2023-05-27T10:08:11;26.00;92.10
45008;DHT22;30743;52.008;5.644;2023-05-27T10:10:37;26.00;90.60
45008;DHT22;30743;52.008;5.644;2023-05-27T10:13:03;26.20;90.90
45008;DHT22;30743;52.008;5.644;2023-05-27T10:15:30;26.10;91.40
45008;DHT22;30743;52.008;5.644;2023-05-27T10:18:01;26.50;91.40
45008;DHT22;30743;52.008;5.644;2023-05-27T10:20:29;26.90;90.70
45008;DHT22;30743;52.008;5.644;2023-05-27T10:23:14;27.30;89.90
45008;DHT22;30743;52.008;5.644;2023-05-27T10:25:46;26.80;90.10
45008;DHT22;30743;52.008;5.644;2023-05-27T10:28:27;27.30;91.80
45008;DHT22;30743;52.008;5.644;2023-05-27T10:30:53;27.20;90.50
45008;DHT22;30743;52.008;5.644;2023-05-27T10:33:31;27.20;89.90
45008;DHT22;30743;52.008;5.644;2023-05-27T10:36:10;27.20;91.00
45008;DHT22;30743;52.008;5.644;2023-05-27T10:38:37;27.50;90.30
45008;DHT22;30743;52.008;5.644;2023-05-27T10:41:04;27.80;87.10
45008;DHT22;30743;52.008;5.644;2023-05-27T10:43:31;28.00;87.40
45008;DHT22;30743;52.008;5.644;2023-05-27T10:46:13;28.10;90.20
45008;DHT22;30743;52.008;5.644;2023-05-27T10:48:39;28.30;90.20
45008;DHT22;30743;52.008;5.644;2023-05-27T10:51:05;28.50;87.40
45008;DHT22;30743;52.008;5.644;2023-05-27T10:53:35;28.80;87.40
45008;DHT22;30743;52.008;5.644;2023-05-27T10:56:00;28.80;87.10
45008;DHT22;30743;52.008;5.644;2023-05-27T10:58:26;29.00;88.80
45008;DHT22;30743;52.008;5.644;2023-05-27T11:00:53;29.10;89.40
45008;DHT22;30743;52.008;5.644;2023-05-27T11:03:27;29.10;85.60
45008;DHT22;30743;52.008;5.644;2023-05-27T11:06:03;29.20;88.80
45008;DHT22;30743;52.008;5.644;2023-05-27T11:08:31;29.40;88.50
45008;DHT22;30743;52.008;5.644;2023-05-27T11:10:58;29.50;86.60
45008;DHT22;30743;52.008;5.644;2023-05-27T11:13:39;29.30;90.20
45008;DHT22;30743;52.008;5.644;2023-05-27T11:16:06;28.80;89.60
45008;DHT22;30743;52.008;5.644;2023-05-27T11:18:39;28.60;89.50
45008;DHT22;30743;52.008;5.644;2023-05-27T11:21:07;28.60;86.70
45008;DHT22;30743;52.008;5.644;2023-05-27T11:23:35;28.50;87.00
45008;DHT22;30743;52.008;5.644;2023-05-27T11:26:00;28.40;87.30
45008;DHT22;30743;52.008;5.644;2023-05-27T11:28:26;28.60;86.90
45008;DHT22;30743;52.008;5.644;2023-05-27T11:31:06;28.70;87.90
45008;DHT22;30743;52.008;5.644;2023-05-27T11:33:32;28.80;88.90
45008;DHT22;30743;52.008;5.644;2023-05-27T11:36:05;29.00;86.50
45008;DHT22;30743;52.008;5.644;2023-05-27T11:38:31;29.30;85.40
45008;DHT22;30743;52.008;5.644;2023-05-27T11:41:07;29.60;88.20
45008;DHT22;30743;52.008;5.644;2023-05-27T11:43:33;29.50;86.90
45008;DHT22;30743;52.008;5.644;2023-05-27T11:46:04;29.50;87.90
45008;DHT22;30743;52.008;5.644;2023-05-27T11:48:30;29.90;86.90
45008;DHT22;30743;52.008;5.644;2023-05-27T11:50:55;28.90;87.00
45008;DHT22;30743;52.008;5.644;2023-05-27T11:53:21;29.20;86.00
45008;DHT22;30743;52.008;5.644;2023-05-27T11:55:47;29.10;87.10
45008;DHT22;30743;52.008;5.644;2023-05-27T11:58:13;29.50;87.10
45008;DHT22;30743;52.008;5.644;2023-05-27T12:00:38;29.80;83.50
45008;DHT22;30743;52.008;5.644;2023-05-27T12:03:04;29.80;85.10
45008;DHT22;30743;52.008;5.644;2023-05-27T12:05:30;29.80;85.10
45008;DHT22;30743;52.008;5.644;2023-05-27T12:07:55;29.60;83.40
45008;DHT22;30743;52.008;5.644;2023-05-27T12:10:21;29.90;84.30
45008;DHT22;30743;52.008;5.644;2023-05-27T12:12:46;30.30;85.10
45008;DHT22;30743;52.008;5.644;2023-05-27T12:15:12;29.80;83.40
45008;DHT22;30743;52.008;5.644;2023-05-27T12:17:38;30.10;85.20
45008;DHT22;30743;52.008;5.644;2023-05-27T12:20:04;30.30;81.00
45008;DHT22;30743;52.008;5.644;2023-05-27T12:22:31;30.60;83.70
45008;DHT22;30743;52.008;5.644;2023-05-27T12:24:57;30.60;83.90
45008;DHT22;30743;52.008;5.644;2023-05-27T12:27:22;30.90;81.00
45008;DHT22;30743;52.008;5.644;2023-05-27T12:29:48;31.10;82.20
45008;DHT22;30743;52.008;5.644;2023-05-27T12:32:13;30.80;82.90
45008;DHT22;30743;52.008;5.644;2023-05-27T12:34:39;30.80;83.40
45008;DHT22;30743;52.008;5.644;2023-05-27T12:37:04;31.00;81.60
45008;DHT22;30743;52.008;5.644;2023-05-27T12:39:30;31.00;81.10
45008;DHT22;30743;52.008;5.644;2023-05-27T12:41:56;31.00;82.60
45008;DHT22;30743;52.008;5.644;2023-05-27T12:44:22;30.90;81.10
45008;DHT22;30743;52.008;5.644;2023-05-27T12:46:47;30.40;77.50
45008;DHT22;30743;52.008;5.644;2023-05-27T12:49:13;29.70;82.20
45008;DHT22;30743;52.008;5.644;2023-05-27T12:51:38;29.00;82.30
45008;DHT22;30743;52.008;5.644;2023-05-27T12:54:04;28.70;82.30
45008;DHT22;30743;52.008;5.644;2023-05-27T12:56:29;28.70;79.90
45008;DHT22;30743;52.008;5.644;2023-05-27T12:58:55;29.20;83.40
45008;DHT22;30743;52.008;5.644;2023-05-27T13:01:21;29.60;81.50
45008;DHT22;30743;52.008;5.644;2023-05-27T13:03:46;29.50;78.40
45008;DHT22;30743;52.008;5.644;2023-05-27T13:06:12;29.80;80.20
45008;DHT22;30743;52.008;5.644;2023-05-27T13:08:38;29.20;81.90
45008;DHT22;30743;52.008;5.644;2023-05-27T13:11:03;29.50;82.60
45008;DHT22;30743;52.008;5.644;2023-05-27T13:13:29;29.90;82.10
45008;DHT22;30743;52.008;5.644;2023-05-27T13:15:54;30.20;80.70
45008;DHT22;30743;52.008;5.644;2023-05-27T13:18:20;30.00;80.60
45008;DHT22;30743;52.008;5.644;2023-05-27T13:20:46;30.10;83.40
45008;DHT22;30743;52.008;5.644;2023-05-27T13:23:11;30.40;82.50
45008;DHT22;30743;52.008;5.644;2023-05-27T13:25:37;30.40;78.10
45008;DHT22;30743;52.008;5.644;2023-05-27T13:28:03;30.60;75.90
45008;DHT22;30743;52.008;5.644;2023-05-27T13:30:29;30.60;80.60
45008;DHT22;30743;52.008;5.644;2023-05-27T13:32:55;30.70;77.30
45008;DHT22;30743;52.008;5.644;2023-05-27T13:35:21;30.80;78.80
45008;DHT22;30743;52.008;5.644;2023-05-27T13:37:46;30.40;76.60
45008;DHT22;30743;52.008;5.644;2023-05-27T13:40:12;30.80;76.80
45008;DHT22;30743;52.008;5.644;2023-05-27T13:42:39;31.00;78.10
45008;DHT22;30743;52.008;5.644;2023-05-27T13:45:05;31.00;80.40
45008;DHT22;30743;52.008;5.644;2023-05-27T13:47:31;30.80;76.70
45008;DHT22;30743;52.008;5.644;2023-05-27T13:49:57;30.70;82.50
45008;DHT22;30743;52.008;5.644;2023-05-27T13:52:22;30.40;81.70
45008;DHT22;30743;52.008;5.644;2023-05-27T13:54:48;30.20;76.80
45008;DHT22;30743;52.008;5.644;2023-05-27T13:57:14;29.90;81.00
45008;DHT22;30743;52.008;5.644;2023-05-27T13:59:40;30.20;78.00
45008;DHT22;30743;52.008;5.644;2023-05-27T14:02:05;30.40;79.00
45008;DHT22;30743;52.008;5.644;2023-05-27T14:04:33;30.40;76.40
45008;DHT22;30743;52.008;5.644;2023-05-27T14:06:58;30.30;78.40
45008;DHT22;30743;52.008;5.644;2023-05-27T14:09:24;30.60;77.10
45008;DHT22;30743;52.008;5.644;2023-05-27T14:11:50;30.20;77.80
45008;DHT22;30743;52.008;5.644;2023-05-27T14:14:15;30.00;75.80
45008;DHT22;30743;52.008;5.644;2023-05-27T14:16:41;29.60;77.40
45008;DHT22;30743;52.008;5.644;2023-05-27T14:19:06;29.80;76.10
45008;DHT22;30743;52.008;5.644;2023-05-27T14:21:32;30.20;76.20
45008;DHT22;30743;52.008;5.644;2023-05-27T14:23:58;30.30;77.90
45008;DHT22;30743;52.008;5.644;2023-05-27T14:26:25;30.60;76.20
45008;DHT22;30743;52.008;5.644;2023-05-27T14:28:51;30.60;80.40
45008;DHT22;30743;52.008;5.644;2023-05-27T14:31:16;30.70;78.80
45008;DHT22;30743;52.008;5.644;2023-05-27T14:33:42;30.70;78.00
45008;DHT22;30743;52.008;5.644;2023-05-27T14:36:07;30.60;77.80
45008;DHT22;30743;52.008;5.644;2023-05-27T14:38:33;30.30;76.80
45008;DHT22;30743;52.008;5.644;2023-05-27T14:40:58;30.30;79.50
45008;DHT22;30743;52.008;5.644;2023-05-27T14:43:24;30.60;80.10
45008;DHT22;30743;52.008;5.644;2023-05-27T14:45:50;30.30;79.20
45008;DHT22;30743;52.008;5.644;2023-05-27T14:48:15;30.50;76.20
45008;DHT22;30743;52.008;5.644;2023-05-27T14:50:41;30.70;79.40
45008;DHT22;30743;52.008;5.644;2023-05-27T14:53:06;30.80;77.60
45008;DHT22;30743;52.008;5.644;2023-05-27T14:55:32;30.50;76.10
45008;DHT22;30743;52.008;5.644;2023-05-27T14:58:00;30.30;76.50
45008;DHT22;30743;52.008;5.644;2023-05-27T15:00:26;30.10;79.60
45008;DHT22;30743;52.008;5.644;2023-05-27T15:02:51;30.00;77.20
45008;DHT22;30743;52.008;5.644;2023-05-27T15:05:17;30.30;79.50
45008;DHT22;30743;52.008;5.644;2023-05-27T15:07:42;30.40;80.30
45008;DHT22;30743;52.008;5.644;2023-05-27T15:10:08;30.50;80.30
45008;DHT22;30743;52.008;5.644;2023-05-27T15:12:46;30.70;78.20
45008;DHT22;30743;52.008;5.644;2023-05-27T15:15:19;30.60;78.20
45008;DHT22;30743;52.008;5.644;2023-05-27T15:17:46;30.80;77.50
45008;DHT22;30743;52.008;5.644;2023-05-27T15:20:13;30.60;77.10
45008;DHT22;30743;52.008;5.644;2023-05-27T15:22:39;30.30;77.40
45008;DHT22;30743;52.008;5.644;2023-05-27T15:25:06;30.40;78.00
45008;DHT22;30743;52.008;5.644;2023-05-27T15:27:31;30.30;77.30
45008;DHT22;30743;52.008;5.644;2023-05-27T15:29:57;30.40;78.60
45008;DHT22;30743;52.008;5.644;2023-05-27T15:32:23;30.50;75.20
45008;DHT22;30743;52.008;5.644;2023-05-27T15:34:48;30.20;74.10